createdAt,value
2019-03-15T00:01:52.452Z,78.27
2019-03-15T00:04:33.385Z,80.77
2019-03-15T00:07:20.951Z,85.95
2019-03-15T00:10:05.849Z,140.45
2019-03-15T00:12:45.088Z,113.50
2019-03-15T00:15:27.900Z,102.67
2019-03-15T00:18:11.250Z,89.20
2019-03-15T00:20:56.405Z,83.10
2019-03-15T00:23:49.542Z,92.93
2019-03-15T00:26:56.335Z,98.83
2019-03-15T00:29:43.056Z,102.07
2019-03-15T00:32:23.297Z,142.37
2019-03-15T00:35:09.807Z,312.60
2019-03-15T00:37:56.592Z,181.70
2019-03-15T00:40:37.087Z,127.23
2019-03-15T00:43:17.234Z,114.50
2019-03-15T00:46:04.929Z,116.80
2019-03-15T00:48:50.683Z,107.17
2019-03-15T00:51:36.835Z,107.85
2019-03-15T00:54:19.782Z,86.70
2019-03-15T00:56:59.888Z,96.87
2019-03-15T00:59:40.852Z,88.97
2019-03-15T01:02:23.063Z,86.83
2019-03-15T01:05:08.996Z,88.53
2019-03-15T01:07:57.517Z,94.27
2019-03-15T01:10:40.447Z,105.63
2019-03-15T01:13:23.997Z,105.00
2019-03-15T01:16:10.934Z,89.90
2019-03-15T01:18:50.774Z,96.17
2019-03-15T01:21:33.732Z,84.50
2019-03-15T01:24:18.084Z,94.97
2019-03-15T01:27:04.702Z,91.60
2019-03-15T01:29:48.082Z,92.33
2019-03-15T01:32:33.617Z,86.67
2019-03-15T01:35:18.285Z,87.20
2019-03-15T01:38:01.580Z,96.13
2019-03-15T01:40:44.464Z,99.30
2019-03-15T01:43:29.937Z,96.17
2019-03-15T01:46:10.708Z,93.57
2019-03-15T01:48:55.157Z,111.47
2019-03-15T01:51:41.467Z,99.60
2019-03-15T01:54:25.285Z,84.30
2019-03-15T01:57:05.356Z,87.60
2019-03-15T01:59:48.446Z,84.67
2019-03-15T02:02:36.399Z,89.47
2019-03-15T02:05:29.118Z,93.20
2019-03-15T02:08:12.070Z,83.53
2019-03-15T02:10:56.083Z,83.70
2019-03-15T02:13:37.115Z,84.30
2019-03-15T02:16:19.681Z,92.57
2019-03-15T02:19:04.368Z,113.13
2019-03-15T02:21:47.358Z,102.27
2019-03-15T02:24:39.207Z,106.03
2019-03-15T02:27:18.198Z,106.43
2019-03-15T02:30:04.060Z,116.53
2019-03-15T02:32:45.009Z,90.30
2019-03-15T02:35:27.958Z,88.63
2019-03-15T02:38:20.145Z,81.00
2019-03-15T02:41:01.422Z,101.60
2019-03-15T02:43:42.158Z,72.63
2019-03-15T02:46:28.797Z,94.17
2019-03-15T02:49:14.161Z,91.80
2019-03-15T02:51:59.983Z,88.30
2019-03-15T02:54:55.211Z,81.97
2019-03-15T02:57:39.963Z,80.77
2019-03-15T03:00:20.520Z,71.23
2019-03-15T03:03:04.010Z,89.50
2019-03-15T03:05:46.432Z,128.97
2019-03-15T03:08:29.992Z,91.33
2019-03-15T03:11:17.252Z,78.97
2019-03-15T03:14:05.931Z,66.37
2019-03-15T03:16:52.595Z,69.13
2019-03-15T03:19:38.919Z,72.77
2019-03-15T03:22:30.735Z,70.33
2019-03-15T03:25:10.820Z,76.53
2019-03-15T03:27:56.845Z,82.42
2019-03-15T03:30:46.654Z,73.10
2019-03-15T03:33:25.862Z,78.20
2019-03-15T03:36:10.446Z,74.47
2019-03-15T03:38:56.860Z,81.93
2019-03-15T03:41:44.422Z,79.57
2019-03-15T03:44:30.498Z,66.50
2019-03-15T03:47:17.078Z,62.67
2019-03-15T03:50:03.655Z,64.23
2019-03-15T03:52:48.484Z,67.75
2019-03-15T03:55:33.222Z,58.63
2019-03-15T03:58:18.994Z,56.10
2019-03-15T04:01:00.905Z,63.43
2019-03-15T04:03:41.100Z,69.22
2019-03-15T04:06:32.296Z,67.13
2019-03-15T04:09:20.040Z,60.97
2019-03-15T04:15:08.005Z,78.17
2019-03-15T04:17:53.700Z,67.13
2019-03-15T04:20:38.685Z,78.33
2019-03-15T04:23:19.713Z,56.53
2019-03-15T04:26:02.223Z,69.40
2019-03-15T04:28:50.223Z,156.87
2019-03-15T04:31:38.373Z,129.80
2019-03-15T04:34:28.248Z,113.23
2019-03-15T04:37:11.559Z,147.33
2019-03-15T04:40:01.223Z,187.90
2019-03-15T04:42:51.901Z,152.30
2019-03-15T04:45:54.145Z,135.93
2019-03-15T04:48:36.714Z,92.90
2019-03-15T04:51:44.345Z,74.17
2019-03-15T04:54:39.802Z,86.17
2019-03-15T04:57:25.377Z,84.77
2019-03-15T05:00:08.883Z,73.97
2019-03-15T05:03:15.140Z,64.33
2019-03-15T05:06:12.676Z,66.13
2019-03-15T05:09:01.031Z,63.07
2019-03-15T05:11:49.657Z,61.37
2019-03-15T05:14:39.155Z,74.62
2019-03-15T05:17:33.041Z,65.67
2019-03-15T05:20:21.339Z,71.37
2019-03-15T05:23:10.881Z,58.97
2019-03-15T05:26:11.757Z,56.03
2019-03-15T05:29:17.743Z,50.27
2019-03-15T05:32:14.124Z,56.30
2019-03-15T05:35:16.198Z,52.30
2019-03-15T05:37:59.671Z,61.20
2019-03-15T05:40:55.106Z,57.93
2019-03-15T05:43:41.500Z,54.83
2019-03-15T05:46:33.333Z,55.37
2019-03-15T05:49:21.812Z,55.17
2019-03-15T05:52:04.595Z,80.40
2019-03-15T05:54:59.963Z,52.07
2019-03-15T05:57:51.886Z,58.10
2019-03-15T06:00:40.084Z,55.50
2019-03-15T06:03:25.943Z,53.87
2019-03-15T06:06:11.366Z,60.93
2019-03-15T06:08:58.381Z,44.17
2019-03-15T06:11:54.914Z,53.10
2019-03-15T06:14:53.490Z,75.53
2019-03-15T06:17:46.826Z,49.80
2019-03-15T06:20:51.436Z,46.37
2019-03-15T06:23:55.034Z,53.40
2019-03-15T06:27:06.640Z,55.30
2019-03-15T06:30:27.668Z,49.60
2019-03-15T06:33:29.755Z,51.02
2019-03-15T06:36:34.713Z,43.33
2019-03-15T06:39:37.748Z,40.73
2019-03-15T06:42:39.060Z,46.27
2019-03-15T06:45:34.904Z,78.70
2019-03-15T06:48:28.318Z,52.00
2019-03-15T06:51:19.185Z,53.40
2019-03-15T06:54:37.806Z,48.30
2019-03-15T06:57:37.602Z,41.33
2019-03-15T07:00:29.186Z,44.13
2019-03-15T07:03:25.029Z,44.60
2019-03-15T07:06:21.505Z,51.23
2019-03-15T07:09:05.224Z,43.03
2019-03-15T07:11:49.861Z,47.05
2019-03-15T07:14:40.742Z,38.87
2019-03-15T07:17:31.586Z,41.77
2019-03-15T07:20:14.078Z,42.63
2019-03-15T07:22:59.353Z,32.37
2019-03-15T07:25:45.564Z,34.83
2019-03-15T07:28:53.790Z,38.33
2019-03-15T07:31:53.666Z,48.97
2019-03-15T07:34:36.973Z,43.63
2019-03-15T07:37:21.471Z,37.63
2019-03-15T07:40:18.541Z,46.47
2019-03-15T07:43:04.552Z,46.93
2019-03-15T07:45:53.795Z,37.70
2019-03-15T07:48:44.687Z,45.17
2019-03-15T07:51:27.823Z,37.73
2019-03-15T07:54:12.716Z,53.97
2019-03-15T07:57:12.355Z,57.87
2019-03-15T08:00:03.883Z,52.37
2019-03-15T08:02:52.429Z,51.80
2019-03-15T08:05:38.206Z,57.00
2019-03-15T08:08:27.379Z,53.67
2019-03-15T08:11:30.524Z,45.40
2019-03-15T08:14:24.577Z,36.50
2019-03-15T08:17:11.382Z,44.53
2019-03-15T08:19:54.290Z,41.60
2019-03-15T08:22:44.243Z,44.00
2019-03-15T08:25:36.730Z,50.67
2019-03-15T08:28:25.051Z,41.33
2019-03-15T08:31:06.339Z,54.60
2019-03-15T08:33:53.502Z,44.60
2019-03-15T08:36:37.408Z,40.10
2019-03-15T08:39:26.012Z,43.10
2019-03-15T08:42:10.622Z,41.57
2019-03-15T08:44:55.868Z,50.80
2019-03-15T08:47:40.627Z,45.80
2019-03-15T08:50:25.294Z,44.13
2019-03-15T08:53:22.544Z,43.90
2019-03-15T08:56:14.575Z,48.68
2019-03-15T08:58:53.937Z,47.23
2019-03-15T09:01:37.400Z,61.42
2019-03-15T09:04:25.941Z,56.03
2019-03-15T09:07:21.505Z,52.03
2019-03-15T09:09:58.652Z,55.03
2019-03-15T09:12:52.486Z,42.83
2019-03-15T09:15:36.450Z,49.27
2019-03-15T09:18:25.983Z,49.83
2019-03-15T09:21:17.083Z,56.97
2019-03-15T09:24:12.915Z,58.20
2019-03-15T09:27:01.990Z,50.43
2019-03-15T09:29:47.714Z,36.40
2019-03-15T09:32:31.825Z,45.47
2019-03-15T09:35:21.630Z,35.83
2019-03-15T09:38:03.340Z,39.03
2019-03-15T09:40:55.298Z,47.83
2019-03-15T09:43:39.046Z,68.03
2019-03-15T09:46:29.617Z,57.30
2019-03-15T09:49:14.358Z,40.63
2019-03-15T09:52:00.010Z,35.90
2019-03-15T09:54:45.898Z,44.20
2019-03-15T09:57:34.449Z,42.33
2019-03-15T10:00:19.142Z,69.20
2019-03-15T10:03:22.910Z,60.53
2019-03-15T10:06:14.718Z,42.77
2019-03-15T10:08:54.122Z,42.47
2019-03-15T10:11:46.169Z,41.70
2019-03-15T10:14:30.527Z,36.70
2019-03-15T10:17:16.384Z,43.95
2019-03-15T10:20:30.137Z,50.40
2019-03-15T10:23:14.993Z,49.43
2019-03-15T10:26:09.731Z,69.37
2019-03-15T10:29:14.230Z,58.83
2019-03-15T10:31:48.082Z,53.40
2019-03-15T10:34:46.049Z,50.33
2019-03-15T10:37:36.230Z,45.63
2019-03-15T10:40:21.362Z,56.90
2019-03-15T10:43:11.566Z,50.80
2019-03-15T10:46:01.477Z,40.83
2019-03-15T10:48:47.111Z,39.93
2019-03-15T10:51:35.185Z,38.63
2019-03-15T10:54:36.742Z,60.38
2019-03-15T10:57:25.407Z,40.20
2019-03-15T11:00:13.880Z,27.77
2019-03-15T11:03:06.409Z,228.73
2019-03-15T11:05:54.427Z,158.80
2019-03-15T11:08:53.207Z,83.50
2019-03-15T11:11:43.824Z,34.40
2019-03-15T11:14:36.627Z,25.63
2019-03-15T11:17:20.464Z,39.20
2019-03-15T11:20:03.348Z,50.17
2019-03-15T11:22:54.684Z,46.47
2019-03-15T11:25:39.960Z,43.10
2019-03-15T11:28:21.846Z,38.17
2019-03-15T11:31:15.085Z,43.42
2019-03-15T11:34:19.505Z,54.37
2019-03-15T11:37:10.020Z,56.10
2019-03-15T11:40:14.561Z,58.33
2019-03-15T11:42:56.177Z,48.70
2019-03-15T11:45:48.925Z,48.77
2019-03-15T11:48:53.414Z,38.30
2019-03-15T11:52:01.467Z,123.83
2019-03-15T11:54:51.466Z,122.37
2019-03-15T11:57:45.075Z,63.45
2019-03-15T12:00:49.249Z,69.97
2019-03-15T12:04:01.002Z,58.40
2019-03-15T12:07:06.578Z,325.83
2019-03-15T12:10:10.019Z,439.80
2019-03-15T12:13:19.607Z,358.63
2019-03-15T12:16:10.818Z,500.90
2019-03-15T12:19:18.929Z,1379.17
2019-03-15T12:22:13.546Z,989.83
2019-03-15T12:25:32.746Z,418.00
2019-03-15T12:28:30.028Z,111.77
2019-03-15T12:31:16.550Z,61.97
2019-03-15T12:34:09.923Z,45.43
2019-03-15T12:37:18.708Z,47.97
2019-03-15T12:40:18.750Z,58.58
2019-03-15T12:43:31.305Z,69.70
2019-03-15T12:46:48.824Z,50.10
2019-03-15T12:49:53.439Z,26.73
2019-03-15T12:53:02.793Z,34.93
2019-03-15T12:56:03.067Z,45.07
2019-03-15T12:59:07.488Z,42.90
2019-03-15T13:02:20.015Z,303.43
2019-03-15T13:05:32.678Z,409.47
2019-03-15T13:09:02.190Z,229.20
2019-03-15T13:11:51.846Z,468.90
2019-03-15T13:15:24.989Z,191.80
2019-03-15T13:18:43.125Z,385.33
2019-03-15T13:22:07.263Z,457.50
2019-03-15T13:25:18.508Z,446.50
2019-03-15T13:28:15.175Z,178.23
2019-03-15T13:31:32.893Z,388.77
2019-03-15T13:34:54.278Z,324.20
2019-03-15T13:38:10.393Z,222.37
2019-03-15T13:41:33.846Z,480.80
2019-03-15T13:44:59.662Z,203.83
2019-03-15T13:48:27.620Z,70.03
2019-03-15T14:13:00.051Z,48.13
2019-03-15T14:16:13.232Z,52.97
2019-03-15T14:19:47.493Z,49.13
2019-03-15T14:22:54.482Z,55.90
2019-03-15T14:30:46.816Z,49.17
2019-03-15T14:34:26.670Z,52.53
2019-03-15T14:37:52.312Z,49.10
2019-03-15T14:40:57.479Z,50.60
2019-03-15T14:44:08.023Z,47.00
2019-03-15T14:47:02.249Z,43.10
2019-03-15T14:50:23.531Z,45.27
2019-03-15T14:53:51.174Z,45.23
2019-03-15T14:57:00.731Z,45.33
2019-03-15T15:00:22.418Z,46.77
2019-03-15T15:03:44.953Z,47.43
2019-03-15T15:07:10.784Z,46.13
2019-03-15T15:10:27.823Z,41.63
2019-03-15T15:13:49.690Z,69.30
2019-03-15T15:17:05.439Z,58.90
2019-03-15T15:20:11.195Z,54.70
2019-03-15T15:23:34.521Z,50.17
2019-03-15T15:27:08.312Z,54.53
2019-03-15T15:30:22.301Z,61.77
2019-03-15T15:33:45.657Z,50.37
2019-03-15T15:36:50.978Z,50.10
2019-03-15T15:40:09.914Z,48.00
2019-03-15T15:43:32.639Z,40.90
2019-03-15T15:46:29.009Z,43.10
2019-03-15T15:49:57.796Z,183.50
2019-03-15T15:56:54.765Z,52.90
2019-03-15T16:00:22.445Z,47.27
2019-03-15T16:03:44.562Z,46.77
2019-03-15T16:06:56.838Z,250.83
2019-03-15T16:10:33.110Z,119.77
2019-03-15T16:13:35.354Z,59.90
2019-03-15T16:16:31.045Z,44.87
2019-03-15T16:19:19.966Z,40.87
2019-03-15T16:22:20.727Z,41.50
2019-03-15T16:25:32.516Z,40.87
2019-03-15T16:28:50.693Z,40.57
2019-03-15T16:31:56.701Z,40.85
2019-03-15T16:35:00.967Z,41.23
2019-03-15T16:38:12.520Z,43.68
2019-03-15T16:41:07.151Z,40.27
2019-03-15T16:44:13.411Z,44.17
2019-03-15T16:47:21.934Z,37.87
2019-03-15T16:50:26.875Z,42.70
2019-03-15T16:53:18.952Z,37.77
2019-03-15T16:56:20.258Z,41.23
2019-03-15T16:59:15.786Z,39.77
2019-03-15T17:02:03.255Z,40.90
2019-03-15T17:05:08.071Z,42.73
2019-03-15T17:07:53.639Z,48.60
2019-03-15T17:10:40.833Z,45.17
2019-03-15T17:13:44.253Z,48.47
2019-03-15T17:16:34.367Z,46.37
2019-03-15T17:19:42.313Z,54.33
2019-03-15T17:22:38.021Z,48.77
2019-03-15T17:25:49.633Z,322.50
2019-03-15T17:28:57.927Z,483.27
2019-03-15T17:31:41.323Z,96.43
2019-03-15T17:34:35.297Z,57.90
2019-03-15T17:37:33.495Z,55.73
2019-03-15T17:40:24.094Z,56.33
2019-03-15T17:43:22.673Z,62.00
2019-03-15T17:46:06.532Z,55.63
2019-03-15T17:49:00.683Z,65.83
2019-03-15T17:51:47.888Z,57.87
2019-03-15T17:54:42.585Z,64.73
2019-03-15T17:57:26.351Z,370.97
2019-03-15T18:00:54.735Z,96.33
2019-03-15T18:03:47.506Z,64.63
2019-03-15T18:06:43.199Z,61.20
2019-03-15T18:09:28.245Z,55.53
2019-03-15T18:12:25.898Z,53.53
2019-03-15T18:15:10.632Z,63.77
2019-03-15T18:17:53.895Z,54.87
2019-03-15T18:20:54.107Z,48.13
2019-03-15T18:23:38.170Z,56.77
2019-03-15T18:26:23.719Z,56.93
2019-03-15T18:29:08.262Z,51.13
2019-03-15T18:31:59.847Z,64.03
2019-03-15T18:34:56.222Z,54.13
2019-03-15T18:37:43.047Z,64.30
2019-03-15T18:40:23.901Z,61.17
2019-03-15T18:43:07.332Z,56.83
2019-03-15T18:45:57.357Z,56.67
2019-03-15T18:48:44.301Z,57.50
2019-03-15T18:51:27.893Z,58.63
2019-03-15T18:54:17.385Z,55.33
2019-03-15T18:56:58.830Z,57.03
2019-03-15T18:59:44.893Z,57.37
2019-03-15T19:02:35.989Z,51.40
2019-03-15T19:05:15.379Z,60.50
2019-03-15T19:08:03.961Z,60.07
2019-03-15T19:10:49.277Z,63.80
2019-03-15T19:13:32.302Z,58.50
2019-03-15T19:16:20.115Z,52.60
2019-03-15T19:19:04.942Z,53.83
2019-03-15T19:21:46.026Z,54.40
2019-03-15T19:24:28.386Z,52.63
2019-03-15T19:27:09.832Z,54.00
2019-03-15T19:29:53.942Z,53.70
2019-03-15T19:32:36.105Z,54.00
2019-03-15T19:35:19.927Z,52.87
2019-03-15T19:38:03.926Z,55.40
2019-03-15T19:40:49.156Z,52.67
2019-03-15T19:43:29.373Z,45.73
2019-03-15T19:46:12.216Z,52.53
2019-03-15T19:48:53.317Z,54.67
2019-03-15T19:51:36.990Z,50.33
2019-03-15T19:54:22.972Z,52.60
2019-03-15T19:57:07.251Z,52.07
2019-03-15T19:59:50.193Z,47.07
2019-03-15T20:02:33.268Z,54.03
2019-03-15T20:05:12.205Z,61.43
2019-03-15T20:07:57.596Z,57.07
2019-03-15T20:10:42.038Z,51.17
2019-03-15T20:13:25.462Z,50.60
2019-03-15T20:16:10.989Z,48.77
2019-03-15T20:18:55.801Z,51.83
2019-03-15T20:21:40.234Z,50.07
2019-03-15T20:24:27.994Z,51.23
2019-03-15T20:27:11.394Z,52.37
2019-03-15T20:29:54.102Z,58.03
2019-03-15T20:32:37.594Z,54.03
2019-03-15T20:35:18.528Z,53.43
2019-03-15T20:38:06.413Z,56.73
2019-03-15T20:40:52.202Z,55.03
2019-03-15T20:43:36.621Z,58.43
2019-03-15T20:46:34.730Z,55.87
2019-03-15T20:49:02.967Z,51.20
2019-03-15T20:51:45.198Z,55.60
2019-03-15T20:54:27.191Z,52.00
2019-03-15T20:57:10.659Z,54.37
2019-03-15T20:59:51.137Z,58.57
2019-03-15T21:02:32.782Z,58.40
2019-03-15T21:05:15.218Z,57.93
2019-03-15T21:07:59.003Z,58.27
2019-03-15T21:10:44.407Z,62.03
2019-03-15T21:13:33.562Z,59.45
2019-03-15T21:16:14.076Z,54.87
2019-03-15T21:18:57.587Z,62.17
2019-03-15T21:21:37.690Z,57.63
2019-03-15T21:24:22.056Z,53.50
2019-03-15T21:27:05.446Z,61.73
2019-03-15T21:29:44.844Z,51.97
2019-03-15T21:32:29.553Z,54.80
2019-03-15T21:35:10.116Z,57.73
2019-03-15T21:37:51.274Z,57.70
2019-03-15T21:40:32.257Z,51.33
2019-03-15T21:43:16.634Z,54.83
2019-03-15T21:45:59.429Z,57.93
2019-03-15T21:48:41.171Z,57.70
2019-03-15T21:51:25.453Z,60.03
2019-03-15T21:54:07.084Z,55.27
2019-03-15T21:56:48.352Z,62.53
2019-03-15T21:59:31.212Z,57.27
2019-03-15T22:02:12.750Z,57.88
2019-03-15T22:04:55.620Z,58.27
2019-03-15T22:07:39.578Z,64.73
2019-03-15T22:10:19.848Z,56.93
2019-03-15T22:13:04.515Z,58.47
2019-03-15T22:15:48.896Z,54.13
2019-03-15T22:18:33.015Z,56.70
2019-03-15T22:21:14.059Z,58.07
2019-03-15T22:23:53.787Z,60.27
2019-03-15T22:26:33.503Z,61.73
2019-03-15T22:29:19.203Z,64.20
2019-03-15T22:32:02.851Z,59.57
2019-03-15T22:34:47.846Z,61.27
2019-03-15T22:37:29.464Z,65.63
2019-03-15T22:40:13.276Z,62.90
2019-03-15T22:42:56.034Z,68.10
2019-03-15T22:45:38.090Z,64.40
2019-03-15T22:48:21.743Z,63.63
2019-03-15T22:50:59.949Z,62.80
2019-03-15T22:53:42.586Z,67.07
2019-03-15T22:56:29.258Z,62.53
2019-03-15T22:59:11.061Z,63.67
2019-03-15T23:01:53.777Z,65.73
2019-03-15T23:04:40.960Z,63.90
2019-03-15T23:07:27.040Z,59.77
2019-03-15T23:10:11.422Z,63.47
2019-03-15T23:12:52.994Z,69.77
2019-03-15T23:15:38.793Z,71.97
2019-03-15T23:18:26.221Z,66.43
2019-03-15T23:21:08.248Z,74.43
2019-03-15T23:23:56.964Z,78.77
2019-03-15T23:26:43.309Z,74.20
2019-03-15T23:29:32.797Z,74.07
2019-03-15T23:32:14.719Z,82.33
2019-03-15T23:35:00.114Z,115.33
2019-03-15T23:37:43.167Z,87.67
2019-03-15T23:40:26.173Z,80.77
2019-03-15T23:43:08.947Z,81.17
2019-03-15T23:45:49.048Z,68.50
2019-03-15T23:48:46.230Z,75.87
2019-03-15T23:51:29.005Z,72.20
2019-03-15T23:54:13.528Z,72.57
2019-03-15T23:56:58.564Z,71.67
2019-03-15T23:59:56.475Z,74.93
